createdAt,value
2022-10-18T00:00:18.230Z,23.05
2022-10-18T00:02:44.999Z,25.25
2022-10-18T00:05:12.579Z,21.10
2022-10-18T00:07:39.389Z,22.23
2022-10-18T00:10:07.023Z,22.80
2022-10-18T00:12:37.595Z,24.00
2022-10-18T00:15:07.221Z,22.25
2022-10-18T00:17:37.951Z,28.52
2022-10-18T00:20:06.270Z,28.08
2022-10-18T00:22:38.353Z,29.02
2022-10-18T00:27:33.811Z,25.90
2022-10-18T00:30:01.205Z,29.25
2022-10-18T00:32:28.410Z,25.73
2022-10-18T00:34:57.533Z,24.52
2022-10-18T00:37:24.037Z,29.92
2022-10-18T00:42:19.861Z,31.30
2022-10-18T00:44:46.366Z,32.42
2022-10-18T00:47:16.729Z,31.38
2022-10-18T00:49:50.240Z,31.40
2022-10-18T00:52:24.568Z,31.23
2022-10-18T00:54:52.337Z,30.92
2022-10-18T00:57:19.120Z,29.88
2022-10-18T00:59:47.466Z,26.38
2022-10-18T01:02:18.315Z,29.38
2022-10-18T01:04:46.740Z,34.15
2022-10-18T01:07:25.843Z,31.08
2022-10-18T01:09:55.350Z,33.17
2022-10-18T01:12:44.991Z,33.38
2022-10-18T01:15:21.572Z,32.00
2022-10-18T01:18:08.029Z,33.53
2022-10-18T01:20:56.294Z,31.85
2022-10-18T01:23:38.923Z,30.27
2022-10-18T01:26:08.582Z,31.85
2022-10-18T01:28:56.620Z,30.00
2022-10-18T01:31:39.362Z,31.08
2022-10-18T01:34:09.730Z,31.33
2022-10-18T01:36:41.032Z,34.15
2022-10-18T01:39:13.543Z,31.63
2022-10-18T01:41:43.642Z,32.60
2022-10-18T01:44:16.078Z,33.83
2022-10-18T01:46:44.193Z,34.35
2022-10-18T01:49:11.342Z,29.55
2022-10-18T01:51:38.083Z,39.85
2022-10-18T01:54:05.046Z,32.42
2022-10-18T01:56:58.660Z,38.42
2022-10-18T01:59:51.982Z,37.17
2022-10-18T02:02:40.675Z,36.05
2022-10-18T02:05:35.141Z,31.70
2022-10-18T02:08:22.941Z,35.53
2022-10-18T02:10:58.523Z,33.17
2022-10-18T02:13:29.639Z,34.40
2022-10-18T02:16:01.118Z,54.67
2022-10-18T02:18:40.879Z,41.67
2022-10-18T02:21:10.966Z,39.85
2022-10-18T02:23:38.805Z,41.38
2022-10-18T02:26:06.360Z,38.60
2022-10-18T02:28:33.327Z,37.90
2022-10-18T02:31:11.029Z,44.78
2022-10-18T02:33:53.811Z,44.45
2022-10-18T02:36:35.985Z,36.85
2022-10-18T02:39:07.587Z,46.05
2022-10-18T02:41:34.809Z,40.00
2022-10-18T02:44:01.615Z,41.75
2022-10-18T02:46:28.675Z,41.72
2022-10-18T02:48:56.474Z,44.80
2022-10-18T02:51:23.481Z,44.65
2022-10-18T02:53:49.856Z,40.38
2022-10-18T02:56:16.770Z,48.30
2022-10-18T02:58:43.239Z,46.40
2022-10-18T03:01:11.336Z,46.05
2022-10-18T03:03:38.334Z,44.35
2022-10-18T03:06:05.406Z,48.50
2022-10-18T03:08:32.090Z,47.40
2022-10-18T03:10:58.894Z,47.30
2022-10-18T03:13:26.996Z,47.35
2022-10-18T03:15:53.621Z,41.80
2022-10-18T03:18:20.155Z,45.05
2022-10-18T03:20:46.873Z,49.50
2022-10-18T03:23:14.587Z,42.63
2022-10-18T03:25:44.198Z,44.13
2022-10-18T03:28:12.723Z,52.25
2022-10-18T03:30:39.515Z,47.45
2022-10-18T03:33:06.824Z,50.67
2022-10-18T03:35:33.290Z,52.10
2022-10-18T03:38:00.571Z,42.90
2022-10-18T03:40:27.626Z,43.08
2022-10-18T03:42:54.144Z,43.90
2022-10-18T03:45:21.097Z,43.92
2022-10-18T03:47:47.909Z,48.22
2022-10-18T03:50:14.842Z,44.70
2022-10-18T03:52:41.735Z,43.95
2022-10-18T03:55:08.576Z,48.10
2022-10-18T03:57:35.299Z,48.65
2022-10-18T04:00:01.944Z,45.38
2022-10-18T04:02:28.547Z,55.65
2022-10-18T04:04:55.275Z,54.17
2022-10-18T04:07:21.850Z,42.30
2022-10-18T04:09:59.156Z,43.85
2022-10-18T04:12:25.804Z,41.05
2022-10-18T04:14:55.734Z,35.78
2022-10-18T04:17:22.898Z,43.50
2022-10-18T04:19:50.129Z,45.22
2022-10-18T04:22:17.713Z,41.97
2022-10-18T04:24:44.733Z,43.08
2022-10-18T04:27:11.508Z,46.65
2022-10-18T04:29:38.350Z,49.70
2022-10-18T04:32:20.521Z,43.58
2022-10-18T04:34:47.440Z,45.63
2022-10-18T04:37:14.733Z,55.13
2022-10-18T04:39:49.822Z,51.08
2022-10-18T04:42:19.519Z,53.70
2022-10-18T04:44:46.483Z,49.47
2022-10-18T04:47:13.203Z,48.65
2022-10-18T04:49:47.074Z,51.05
2022-10-18T04:52:13.530Z,48.20
2022-10-18T04:54:39.967Z,55.15
2022-10-18T04:57:07.919Z,48.03
2022-10-18T04:59:34.815Z,48.15
2022-10-18T05:02:01.785Z,50.17
2022-10-18T05:04:28.707Z,50.20
2022-10-18T05:06:55.573Z,50.88
2022-10-18T05:09:24.644Z,52.53
2022-10-18T05:11:51.770Z,55.47
2022-10-18T05:14:18.516Z,59.80
2022-10-18T05:16:45.257Z,56.95
2022-10-18T05:19:12.375Z,56.22
2022-10-18T05:21:39.550Z,56.05
2022-10-18T05:24:06.627Z,59.03
2022-10-18T05:26:33.741Z,58.22
2022-10-18T05:29:00.584Z,55.95
2022-10-18T05:31:27.493Z,50.58
2022-10-18T05:33:54.675Z,56.75
2022-10-18T05:36:21.309Z,51.85
2022-10-18T05:38:48.445Z,50.92
2022-10-18T05:41:15.776Z,48.03
2022-10-18T05:43:42.661Z,49.80
2022-10-18T05:46:15.460Z,52.67
2022-10-18T05:48:44.518Z,51.33
2022-10-18T05:51:11.761Z,53.08
2022-10-18T05:53:38.621Z,55.70
2022-10-18T05:56:07.198Z,48.80
2022-10-18T05:58:34.541Z,49.20
2022-10-18T06:01:03.283Z,53.05
2022-10-18T06:03:31.265Z,51.70
2022-10-18T06:06:07.801Z,57.70
2022-10-18T06:08:35.313Z,50.88
2022-10-18T06:11:16.499Z,52.05
2022-10-18T06:13:47.271Z,53.00
2022-10-18T06:16:15.856Z,50.58
2022-10-18T06:18:43.043Z,55.08
2022-10-18T06:21:10.263Z,49.47
2022-10-18T06:23:39.113Z,53.60
2022-10-18T06:26:08.341Z,50.47
2022-10-18T06:28:36.621Z,56.85
2022-10-18T06:31:04.905Z,52.30
2022-10-18T06:33:32.786Z,48.70
2022-10-18T06:36:22.003Z,43.90
2022-10-18T06:38:48.960Z,41.42
2022-10-18T06:41:16.223Z,49.92
2022-10-18T06:43:43.893Z,49.45
2022-10-18T06:46:10.884Z,48.15
2022-10-18T06:48:39.217Z,49.00
2022-10-18T06:51:08.059Z,51.15
2022-10-18T06:53:43.814Z,44.97
2022-10-18T06:56:15.546Z,51.05
2022-10-18T06:58:43.900Z,44.85
2022-10-18T07:01:13.138Z,48.63
2022-10-18T07:03:41.750Z,50.50
2022-10-18T07:06:11.068Z,45.92
2022-10-18T07:08:38.329Z,45.45
2022-10-18T07:11:06.410Z,46.25
2022-10-18T07:13:34.008Z,49.75
2022-10-18T07:16:01.345Z,48.40
2022-10-18T07:18:28.945Z,39.25
2022-10-18T07:20:57.353Z,43.80
2022-10-18T07:23:24.440Z,43.45
2022-10-18T07:25:52.354Z,43.83
2022-10-18T07:28:19.204Z,44.15
2022-10-18T07:30:47.062Z,46.92
2022-10-18T07:33:14.043Z,42.10
2022-10-18T07:35:40.949Z,39.85
2022-10-18T07:38:07.942Z,45.22
2022-10-18T07:40:34.948Z,41.25
2022-10-18T07:43:04.600Z,41.20
2022-10-18T07:45:32.296Z,47.08
2022-10-18T07:47:59.174Z,42.78
2022-10-18T07:50:26.020Z,40.85
2022-10-18T07:52:52.944Z,42.22
2022-10-18T07:55:20.051Z,40.97
2022-10-18T07:57:47.322Z,43.33
2022-10-18T08:00:14.204Z,42.25
2022-10-18T08:02:41.441Z,38.42
2022-10-18T08:05:08.796Z,42.95
2022-10-18T08:07:36.165Z,44.40
2022-10-18T08:10:03.714Z,42.63
2022-10-18T08:12:30.567Z,41.90
2022-10-18T08:14:57.512Z,41.72
2022-10-18T08:17:24.693Z,43.42
2022-10-18T08:20:04.735Z,43.80
2022-10-18T08:22:38.029Z,49.45
2022-10-18T08:25:05.213Z,34.63
2022-10-18T08:27:34.167Z,37.80
2022-10-18T08:30:02.481Z,37.42
2022-10-18T08:32:29.964Z,35.13
2022-10-18T08:34:57.153Z,31.42
2022-10-18T08:37:23.851Z,41.05
2022-10-18T08:39:50.445Z,35.40
2022-10-18T08:42:43.967Z,33.85
2022-10-18T08:45:29.785Z,41.28
2022-10-18T08:48:01.572Z,45.95
2022-10-18T08:50:35.641Z,33.70
2022-10-18T08:53:17.763Z,32.75
2022-10-18T08:55:54.935Z,34.03
2022-10-18T08:58:21.623Z,35.47
2022-10-18T09:01:23.903Z,33.30
2022-10-18T09:04:11.631Z,30.38
2022-10-18T09:06:47.356Z,35.08
2022-10-18T09:09:17.314Z,30.15
2022-10-18T09:12:07.236Z,32.72
2022-10-18T09:14:56.988Z,32.25
2022-10-18T09:17:41.905Z,30.65
2022-10-18T09:20:42.634Z,33.67
2022-10-18T09:23:22.404Z,44.00
2022-10-18T09:26:00.920Z,30.73
2022-10-18T09:28:30.778Z,37.47
2022-10-18T09:31:08.332Z,33.88
2022-10-18T09:33:41.203Z,28.95
2022-10-18T09:36:19.675Z,31.27
2022-10-18T09:39:02.268Z,30.83
2022-10-18T09:41:54.390Z,32.67
2022-10-18T09:44:30.560Z,31.60
2022-10-18T09:47:01.703Z,32.90
2022-10-18T09:49:42.364Z,33.22
2022-10-18T09:52:17.282Z,31.08
2022-10-18T09:54:50.029Z,34.20
2022-10-18T09:57:31.163Z,28.70
2022-10-18T09:59:58.100Z,26.85
2022-10-18T10:02:24.917Z,27.10
2022-10-18T10:04:54.041Z,28.50
2022-10-18T10:07:28.636Z,21.60
2022-10-18T10:10:04.370Z,24.70
2022-10-18T10:12:36.964Z,21.33
2022-10-18T10:15:22.591Z,24.38
2022-10-18T10:18:02.344Z,23.88
2022-10-18T10:20:35.202Z,18.70
2022-10-18T10:23:08.778Z,20.88
2022-10-18T10:25:38.626Z,18.83
2022-10-18T10:28:18.351Z,22.63
2022-10-18T10:30:44.898Z,18.65
2022-10-18T10:33:33.865Z,21.23
2022-10-18T10:36:02.726Z,15.93
2022-10-18T10:38:31.365Z,18.90
2022-10-18T10:40:59.329Z,14.88
2022-10-18T10:43:38.027Z,22.48
2022-10-18T10:46:13.166Z,24.33
2022-10-18T10:48:48.661Z,18.20
2022-10-18T10:51:37.853Z,20.58
2022-10-18T10:54:15.535Z,18.67
2022-10-18T10:57:00.167Z,12.70
2022-10-18T10:59:31.373Z,19.05
2022-10-18T11:02:31.853Z,14.20
2022-10-18T11:05:26.994Z,11.98
2022-10-18T11:07:59.480Z,16.65
2022-10-18T11:10:30.815Z,16.60
2022-10-18T11:13:23.833Z,14.30
2022-10-18T11:16:00.429Z,16.65
2022-10-18T11:18:36.371Z,17.35
2022-10-18T11:21:12.287Z,14.98
2022-10-18T11:23:41.587Z,21.55
2022-10-18T11:26:11.833Z,19.23
2022-10-18T11:29:10.728Z,20.67
2022-10-18T11:32:13.782Z,15.70
2022-10-18T11:34:52.610Z,19.67
2022-10-18T11:37:38.235Z,17.20
2022-10-18T11:40:24.725Z,18.77
2022-10-18T11:43:02.635Z,17.50
2022-10-18T11:45:48.513Z,19.13
2022-10-18T11:48:44.743Z,16.23
2022-10-18T11:51:38.772Z,12.00
2022-10-18T11:54:57.594Z,15.73
2022-10-18T11:57:39.890Z,17.13
2022-10-18T12:03:13.668Z,14.95
2022-10-18T12:05:43.370Z,11.93
2022-10-18T12:08:16.077Z,11.68
2022-10-18T12:11:04.681Z,13.85
2022-10-18T12:13:47.916Z,12.68
2022-10-18T12:16:15.659Z,16.73
2022-10-18T12:19:01.184Z,13.95
2022-10-18T12:21:31.751Z,9.20
2022-10-18T12:24:11.055Z,12.30
2022-10-18T12:26:38.005Z,19.05
2022-10-18T12:29:29.062Z,11.70
2022-10-18T12:32:13.443Z,9.07
2022-10-18T12:34:54.310Z,14.77
2022-10-18T12:38:04.639Z,13.95
2022-10-18T12:40:43.987Z,12.48
2022-10-18T12:43:38.918Z,13.85
2022-10-18T12:46:13.075Z,8.43
2022-10-18T12:48:45.298Z,15.25
2022-10-18T12:51:20.963Z,11.70
2022-10-18T12:54:02.925Z,6.60
2022-10-18T12:56:29.416Z,8.13
2022-10-18T12:59:14.366Z,8.10
2022-10-18T13:01:53.334Z,9.90
2022-10-18T13:04:28.902Z,8.85
2022-10-18T13:06:58.505Z,8.98
2022-10-18T13:09:30.271Z,11.02
2022-10-18T13:12:09.148Z,8.13
2022-10-18T13:15:12.626Z,9.93
2022-10-18T13:17:51.376Z,10.30
2022-10-18T13:20:27.368Z,11.55
2022-10-18T13:23:04.060Z,15.70
2022-10-18T13:26:00.821Z,7.32
2022-10-18T13:28:49.366Z,7.97
2022-10-18T13:31:41.698Z,8.30
2022-10-18T13:34:34.827Z,11.05
2022-10-18T13:37:05.223Z,5.43
2022-10-18T13:39:32.861Z,7.20
2022-10-18T13:42:00.629Z,9.60
2022-10-18T13:44:37.729Z,10.43
2022-10-18T13:47:04.500Z,11.85
2022-10-18T13:49:40.522Z,9.20
2022-10-18T13:52:29.220Z,9.10
2022-10-18T13:55:22.941Z,11.60
2022-10-18T13:58:17.586Z,7.35
2022-10-18T14:00:50.102Z,10.13
2022-10-18T14:03:55.658Z,7.75
2022-10-18T14:06:22.420Z,9.57
2022-10-18T14:09:09.678Z,10.48
2022-10-18T14:12:07.796Z,11.02
2022-10-18T14:14:56.515Z,8.68
2022-10-18T14:17:22.819Z,10.63
2022-10-18T14:19:55.084Z,7.65
2022-10-18T14:22:40.924Z,10.77
2022-10-18T14:25:35.502Z,9.18
2022-10-18T14:28:13.481Z,15.07
2022-10-18T14:31:09.271Z,9.88
2022-10-18T14:33:43.911Z,7.68
2022-10-18T14:36:26.194Z,13.48
2022-10-18T14:38:56.363Z,8.27
2022-10-18T14:41:25.211Z,12.52
2022-10-18T14:44:12.349Z,8.15
2022-10-18T14:46:48.425Z,6.88
2022-10-18T14:49:17.979Z,8.23
2022-10-18T14:51:50.908Z,9.30
2022-10-18T14:54:31.945Z,9.13
2022-10-18T14:57:00.970Z,8.65
2022-10-18T14:59:37.549Z,5.05
2022-10-18T15:02:19.436Z,8.48
2022-10-18T15:04:47.277Z,6.10
2022-10-18T15:07:21.172Z,11.95
2022-10-18T15:09:49.115Z,11.98
2022-10-18T15:12:17.754Z,8.57
2022-10-18T15:14:45.787Z,8.48
2022-10-18T15:17:31.713Z,7.97
2022-10-18T15:20:06.203Z,7.18
2022-10-18T15:22:34.886Z,10.00
2022-10-18T15:25:31.571Z,9.57
2022-10-18T15:28:00.373Z,10.73
2022-10-18T15:30:41.176Z,9.80
2022-10-18T15:33:11.880Z,11.05
2022-10-18T15:35:39.983Z,9.32
2022-10-18T15:38:27.917Z,7.75
2022-10-18T15:40:55.150Z,7.75
2022-10-18T15:43:28.179Z,8.77
2022-10-18T15:46:06.592Z,11.82
2022-10-18T15:48:37.434Z,10.23
2022-10-18T15:51:07.443Z,16.25
2022-10-18T15:53:45.711Z,9.43
2022-10-18T15:56:31.701Z,9.57
2022-10-18T15:59:05.178Z,9.27
2022-10-18T16:01:46.289Z,7.90
2022-10-18T16:04:28.229Z,9.82
2022-10-18T16:06:56.282Z,12.13
2022-10-18T16:09:25.289Z,12.65
2022-10-18T16:11:56.935Z,7.78
2022-10-18T16:16:55.772Z,10.55
2022-10-18T16:19:23.022Z,7.20
2022-10-18T16:21:51.899Z,7.53
2022-10-18T16:24:21.458Z,10.50
2022-10-18T16:26:48.686Z,9.75
2022-10-18T16:29:21.763Z,7.07
2022-10-18T16:31:50.820Z,7.65
2022-10-18T16:34:17.996Z,11.40
2022-10-18T16:36:44.769Z,5.47
2022-10-18T16:39:19.510Z,4.95
2022-10-18T16:41:46.979Z,9.90
2022-10-18T16:44:14.330Z,5.78
2022-10-18T16:46:46.587Z,11.52
2022-10-18T16:51:48.154Z,13.70
2022-10-18T16:54:14.822Z,6.55
2022-10-18T16:56:42.199Z,8.10
2022-10-18T16:59:22.084Z,8.60
2022-10-18T17:01:49.240Z,8.00
2022-10-18T17:04:17.996Z,7.35
2022-10-18T17:06:45.265Z,12.27
2022-10-18T17:09:15.090Z,7.57
2022-10-18T17:11:41.979Z,7.70
2022-10-18T17:14:15.287Z,8.07
2022-10-18T17:16:44.521Z,7.72
2022-10-18T17:19:14.854Z,16.38
2022-10-18T17:21:42.466Z,8.77
2022-10-18T17:24:09.262Z,11.02
2022-10-18T17:26:36.306Z,12.63
2022-10-18T17:29:10.240Z,8.88
2022-10-18T17:31:37.224Z,8.43
2022-10-18T17:34:05.607Z,7.30
2022-10-18T17:36:34.233Z,11.90
2022-10-18T17:39:01.220Z,9.02
2022-10-18T17:41:28.246Z,11.52
2022-10-18T17:43:58.228Z,9.65
2022-10-18T17:46:26.358Z,11.20
2022-10-18T17:48:54.105Z,9.38
2022-10-18T17:51:23.391Z,9.27
2022-10-18T17:53:50.762Z,7.60
2022-10-18T17:56:17.456Z,6.60
2022-10-18T17:58:44.510Z,4.57
2022-10-18T18:01:15.066Z,5.30
2022-10-18T18:03:42.014Z,5.82
2022-10-18T18:06:16.822Z,4.95
2022-10-18T18:08:43.810Z,7.93
2022-10-18T18:11:18.188Z,9.38
2022-10-18T18:13:45.809Z,5.93
2022-10-18T18:16:26.930Z,4.32
2022-10-18T18:18:56.065Z,5.78
2022-10-18T18:21:25.583Z,3.50
2022-10-18T18:23:52.381Z,7.95
2022-10-18T18:26:20.904Z,5.05
2022-10-18T18:28:48.960Z,3.03
2022-10-18T18:31:17.111Z,5.35
2022-10-18T18:33:45.004Z,4.70
2022-10-18T18:36:12.043Z,4.78
2022-10-18T18:38:44.130Z,10.10
2022-10-18T18:41:13.923Z,8.25
2022-10-18T18:43:55.784Z,6.95
2022-10-18T18:46:23.886Z,5.15
2022-10-18T18:48:52.018Z,4.15
2022-10-18T18:51:21.991Z,4.40
2022-10-18T18:53:49.116Z,7.10
2022-10-18T18:56:18.888Z,6.20
2022-10-18T18:58:49.115Z,5.22
2022-10-18T19:01:24.936Z,5.75
2022-10-18T19:03:53.352Z,5.97
2022-10-18T19:06:29.165Z,7.43
2022-10-18T19:09:01.473Z,6.20
2022-10-18T19:11:32.427Z,4.40
2022-10-18T19:14:03.625Z,3.40
2022-10-18T19:16:33.749Z,5.47
2022-10-18T19:19:07.022Z,5.72
2022-10-18T19:21:42.301Z,5.32
2022-10-18T19:24:10.892Z,7.00
2022-10-18T19:26:44.991Z,7.43
2022-10-18T19:29:22.310Z,6.57
2022-10-18T19:31:51.056Z,5.38
2022-10-18T19:34:20.340Z,10.55
2022-10-18T19:36:48.101Z,4.35
2022-10-18T19:39:32.846Z,10.05
2022-10-18T19:42:03.193Z,4.57
2022-10-18T19:44:32.360Z,10.25
2022-10-18T19:46:59.839Z,8.88
2022-10-18T19:49:28.936Z,6.30
2022-10-18T19:51:57.534Z,6.65
2022-10-18T19:54:26.764Z,7.57
2022-10-18T19:56:54.084Z,6.05
2022-10-18T19:59:22.619Z,5.00
2022-10-18T20:01:49.331Z,3.55
2022-10-18T20:04:16.727Z,7.03
2022-10-18T20:06:45.858Z,10.88
2022-10-18T20:09:17.674Z,8.32
2022-10-18T20:11:47.252Z,11.13
2022-10-18T20:14:14.711Z,7.32
2022-10-18T20:16:41.531Z,8.45
2022-10-18T20:19:08.143Z,9.45
2022-10-18T20:21:39.389Z,11.38
2022-10-18T20:24:09.196Z,9.80
2022-10-18T20:26:36.296Z,8.30
2022-10-18T20:29:04.283Z,15.25
2022-10-18T20:31:35.576Z,8.68
2022-10-18T20:34:06.926Z,11.40
2022-10-18T20:36:34.860Z,7.73
2022-10-18T20:39:02.458Z,8.75
2022-10-18T20:41:34.884Z,12.18
2022-10-18T20:44:22.947Z,6.07
2022-10-18T20:46:49.760Z,9.77
2022-10-18T20:49:17.099Z,12.30
2022-10-18T20:51:45.827Z,9.15
2022-10-18T20:54:12.685Z,6.55
2022-10-18T20:56:48.834Z,7.18
2022-10-18T20:59:15.655Z,12.85
2022-10-18T21:01:42.946Z,11.10
2022-10-18T21:04:10.406Z,12.48
2022-10-18T21:06:42.731Z,6.90
2022-10-18T21:09:13.950Z,10.68
2022-10-18T21:11:45.098Z,13.40
2022-10-18T21:14:18.951Z,9.02
2022-10-18T21:16:47.143Z,9.32
2022-10-18T21:19:17.351Z,8.45
2022-10-18T21:21:49.841Z,11.07
2022-10-18T21:24:19.050Z,6.30
2022-10-18T21:26:47.928Z,10.82
2022-10-18T21:29:21.638Z,5.82
2022-10-18T21:31:52.764Z,10.02
2022-10-18T21:34:22.331Z,8.32
2022-10-18T21:36:52.972Z,8.52
2022-10-18T21:41:51.726Z,9.50
2022-10-18T21:44:18.732Z,6.70
2022-10-18T21:46:52.084Z,6.88
2022-10-18T21:49:20.935Z,8.90
2022-10-18T21:51:47.456Z,7.32
2022-10-18T21:54:16.646Z,3.47
2022-10-18T21:56:44.208Z,5.20
2022-10-18T21:59:13.605Z,6.57
2022-10-18T22:01:40.909Z,8.68
2022-10-18T22:04:25.989Z,5.78
2022-10-18T22:06:52.781Z,7.85
2022-10-18T22:09:21.726Z,6.22
2022-10-18T22:11:53.468Z,6.40
2022-10-18T22:14:21.455Z,10.63
2022-10-18T22:16:49.110Z,5.22
2022-10-18T22:19:16.393Z,8.60
2022-10-18T22:21:43.256Z,9.80
2022-10-18T22:24:10.515Z,10.60
2022-10-18T22:26:41.077Z,7.80
2022-10-18T22:29:18.568Z,9.18
2022-10-18T22:31:52.133Z,6.97
2022-10-18T22:34:22.047Z,6.10
2022-10-18T22:36:51.434Z,9.45
2022-10-18T22:39:18.873Z,3.88
2022-10-18T22:41:47.020Z,5.50
2022-10-18T22:44:15.460Z,7.97
2022-10-18T22:46:43.906Z,5.53
2022-10-18T22:49:19.199Z,5.78
2022-10-18T22:51:46.503Z,10.20
2022-10-18T22:54:13.636Z,7.93
2022-10-18T22:56:57.601Z,8.55
2022-10-18T22:59:24.770Z,9.15
2022-10-18T23:01:51.849Z,5.55
2022-10-18T23:04:18.724Z,7.68
2022-10-18T23:06:45.719Z,6.10
2022-10-18T23:09:14.078Z,4.53
2022-10-18T23:11:40.829Z,8.95
2022-10-18T23:14:10.895Z,10.82
2022-10-18T23:16:38.113Z,5.15
2022-10-18T23:19:05.268Z,9.43
2022-10-18T23:21:34.301Z,6.53
2022-10-18T23:24:01.710Z,8.73
2022-10-18T23:26:28.685Z,7.00
2022-10-18T23:28:55.968Z,8.95
2022-10-18T23:31:32.479Z,6.85
2022-10-18T23:34:02.513Z,7.88
2022-10-18T23:36:32.965Z,5.00
2022-10-18T23:38:59.820Z,7.18
2022-10-18T23:41:26.679Z,9.48
2022-10-18T23:43:59.532Z,9.85
2022-10-18T23:46:26.185Z,11.95
2022-10-18T23:49:12.059Z,9.13
2022-10-18T23:51:38.796Z,4.85
2022-10-18T23:54:06.135Z,9.98
2022-10-18T23:56:33.114Z,7.45
2022-10-18T23:58:59.978Z,5.20
